Time;durP1;ratioP1;P1;durP2;ratioP2;P2;SDS_P1;SDS_P2;PMS_P1;PMS_P2;Temp;Humidity;BMP_temperature;BMP_pressure;BME280_temperature;BME280_humidity;BME280_pressure;Samples;Min_cycle;Max_cycle;Signal;HPM_P1;HPM_P2
2022/02/08 00:00:05;;;;;;;16.05;3.50;;;8.10;96.30;;;;;;5048846;28;20086;-69
2022/02/08 00:02:36;;;;;;;6.25;2.85;;;8.10;96.30;;;;;;5086679;28;20502;-68
2022/02/08 00:05:04;;;;;;;8.70;3.05;;;8.20;96.30;;;;;;5085784;28;20470;-69
2022/02/08 00:07:32;;;;;;;12.15;2.97;;;8.20;96.40;;;;;;5091520;28;20475;-69
2022/02/08 00:09:57;;;;;;;8.38;3.00;;;8.20;96.40;;;;;;5092235;28;20098;-69
2022/02/08 00:12:23;;;;;;;10.10;2.75;;;8.20;96.40;;;;;;5105825;28;20024;-69
2022/02/08 00:14:50;;;;;;;10.13;2.75;;;8.20;96.50;;;;;;5091760;28;20040;-69
2022/02/08 00:17:16;;;;;;;8.88;1.80;;;8.20;96.50;;;;;;5092166;28;20043;-69
2022/02/08 00:19:41;;;;;;;4.28;2.38;;;8.20;96.50;;;;;;5105264;28;20032;-69
2022/02/08 00:22:07;;;;;;;13.73;3.17;;;8.20;96.40;;;;;;5091868;28;20398;-69
2022/02/08 00:24:33;;;;;;;15.30;3.00;;;8.20;96.40;;;;;;5092037;28;20501;-69
2022/02/08 00:26:59;;;;;;;14.82;3.25;;;8.20;96.50;;;;;;5085474;28;20047;-69
2022/02/08 00:29:25;;;;;;;8.32;3.08;;;8.20;96.50;;;;;;5084719;28;20396;-69
2022/02/08 00:31:51;;;;;;;6.15;2.83;;;8.20;96.50;;;;;;5092293;28;20111;-69
2022/02/08 00:34:17;;;;;;;9.95;2.67;;;8.20;96.60;;;;;;5078380;28;20441;-69
2022/02/08 00:36:43;;;;;;;9.80;2.78;;;8.30;96.60;;;;;;5091607;28;20024;-69
2022/02/08 00:39:10;;;;;;;6.90;2.70;;;8.20;96.60;;;;;;5092772;28;20044;-69
2022/02/08 00:41:37;;;;;;;12.73;3.05;;;8.30;96.70;;;;;;5104077;28;20069;-69
2022/02/08 00:44:10;;;;;;;5.13;2.42;;;8.20;96.70;;;;;;5091706;28;20039;-69
2022/02/08 00:49:10;;;;;;;9.32;3.10;;;8.30;96.80;;;;;;5108886;28;20036;-69
2022/02/08 00:51:52;;;;;;;12.60;3.15;;;8.20;96.80;;;;;;5096091;28;20024;-69
2022/02/08 00:54:20;;;;;;;9.95;3.45;;;8.30;96.90;;;;;;5093870;28;20377;-69
2022/02/08 00:56:47;;;;;;;11.80;3.08;;;8.30;96.90;;;;;;5087943;28;20483;-68
2022/02/08 00:59:13;;;;;;;8.35;2.35;;;8.30;96.90;;;;;;5094723;28;20032;-69
2022/02/08 01:01:40;;;;;;;10.63;3.10;;;8.30;96.90;;;;;;5094168;28;20119;-68
2022/02/08 01:04:08;;;;;;;10.70;3.33;;;8.30;96.90;;;;;;5082159;28;20116;-69
2022/02/08 01:06:33;;;;;;;16.27;3.67;;;8.40;96.90;;;;;;5087523;27;20024;-69
2022/02/08 01:09:12;;;;;;;10.40;3.25;;;8.40;96.90;;;;;;5083761;28;20487;-69
2022/02/08 01:11:39;;;;;;;7.95;3.50;;;8.40;96.90;;;;;;5092930;28;20468;-69
2022/02/08 01:14:06;;;;;;;9.98;2.40;;;8.40;96.90;;;;;;5091707;28;20037;-68
2022/02/08 01:16:31;;;;;;;8.68;3.58;;;8.40;96.90;;;;;;5094405;28;20028;-69
2022/02/08 01:18:59;;;;;;;14.50;3.38;;;8.40;97.00;;;;;;5106599;28;20486;-68
2022/02/08 01:21:25;;;;;;;9.98;3.33;;;8.40;97.00;;;;;;5095642;28;20024;-69
2022/02/08 01:23:51;;;;;;;19.70;3.63;;;8.40;97.00;;;;;;5102922;28;20039;-69
2022/02/08 01:26:18;;;;;;;9.15;2.25;;;8.40;97.00;;;;;;5102776;28;20023;-68
2022/02/08 01:28:55;;;;;;;5.28;1.50;;;8.40;97.00;;;;;;5101878;28;20046;-69
2022/02/08 01:31:22;;;;;;;10.80;3.33;;;8.50;97.00;;;;;;5103836;28;20081;-68
2022/02/08 01:34:11;;;;;;;8.10;3.03;;;8.50;97.00;;;;;;5082256;28;20381;-68
2022/02/08 01:39:13;;;;;;;6.15;2.63;;;8.50;96.90;;;;;;5089694;28;20021;-68
2022/02/08 01:41:56;;;;;;;6.75;2.80;;;8.50;97.00;;;;;;5089638;28;20050;-69
2022/02/08 01:44:30;;;;;;;15.00;2.88;;;8.60;97.10;;;;;;5093970;28;20082;-68
2022/02/08 01:51:54;;;;;;;8.13;2.58;;;8.50;97.30;;;;;;5086748;28;20024;-69
2022/02/08 01:54:20;;;;;;;6.60;2.63;;;8.50;97.40;;;;;;5072854;28;20032;-69
2022/02/08 01:56:47;;;;;;;6.60;2.30;;;8.50;97.40;;;;;;5093501;28;20090;-68
2022/02/08 01:59:14;;;;;;;4.95;1.92;;;8.50;97.50;;;;;;5106994;28;20063;-69
2022/02/08 02:01:39;;;;;;;7.15;2.25;;;8.50;97.60;;;;;;5076190;28;20024;-69
2022/02/08 02:04:05;;;;;;;6.43;2.72;;;8.50;97.60;;;;;;5078351;28;20104;-69
2022/02/08 02:06:36;;;;;;;6.50;2.58;;;8.50;97.60;;;;;;5087853;28;20028;-69
2022/02/08 02:09:05;;;;;;;4.30;2.42;;;8.50;97.70;;;;;;5090190;28;20492;-69
2022/02/08 02:11:32;;;;;;;3.70;1.92;;;8.60;97.70;;;;;;5088898;28;20033;-69
2022/02/08 02:13:59;;;;;;;7.88;2.55;;;8.60;97.80;;;;;;5092639;28;20107;-69
2022/02/08 02:16:51;;;;;;;6.72;2.80;;;8.50;97.80;;;;;;5091982;28;20054;-69
2022/02/08 02:19:17;;;;;;;10.15;2.88;;;8.60;97.90;;;;;;5092953;28;20391;-69
2022/02/08 02:21:43;;;;;;;3.40;1.92;;;8.50;98.20;;;;;;5081521;28;20094;-69
2022/02/08 02:24:09;;;;;;;6.40;2.65;;;8.50;98.00;;;;;;5088264;28;20032;-69
2022/02/08 02:26:34;;;;;;;12.52;2.60;;;8.60;98.10;;;;;;5092747;28;20024;-67
2022/02/08 02:29:01;;;;;;;8.98;3.10;;;8.60;98.10;;;;;;5082467;28;20043;-69
2022/02/08 02:31:27;;;;;;;10.35;2.90;;;8.60;98.00;;;;;;5080070;28;20382;-71
2022/02/08 02:33:53;;;;;;;3.35;2.17;;;8.60;98.00;;;;;;5073549;28;20036;-69
2022/02/08 02:36:22;;;;;;;9.57;3.00;;;8.60;98.10;;;;;;5073136;28;20048;-68
2022/02/08 02:38:48;;;;;;;12.00;3.38;;;8.70;98.10;;;;;;5072234;28;20025;-69
2022/02/08 02:41:17;;;;;;;12.63;3.38;;;8.70;98.10;;;;;;5071693;28;20035;-69
2022/02/08 02:43:46;;;;;;;7.72;3.15;;;8.60;98.10;;;;;;5091356;28;20058;-69
2022/02/08 02:46:13;;;;;;;10.05;2.92;;;8.70;98.10;;;;;;5074240;28;20055;-69
2022/02/08 02:48:39;;;;;;;6.20;2.78;;;8.70;98.10;;;;;;5072619;28;20082;-69
2022/02/08 02:51:05;;;;;;;5.45;2.85;;;8.70;98.10;;;;;;5073716;28;20028;-69
2022/02/08 02:53:39;;;;;;;5.65;2.70;;;8.70;98.10;;;;;;5080281;28;20127;-68
2022/02/08 02:56:11;;;;;;;5.30;3.05;;;8.80;98.00;;;;;;5091369;28;20055;-69
2022/02/08 02:58:38;;;;;;;4.45;2.65;;;8.80;98.00;;;;;;5091213;28;20016;-68
2022/02/08 03:01:17;;;;;;;5.70;2.53;;;8.80;98.00;;;;;;5109139;28;20058;-69
2022/02/08 03:04:01;;;;;;;5.75;3.20;;;8.90;98.10;;;;;;5089713;28;20103;-68
2022/02/08 03:17:52;;;;;;;5.95;2.83;;;8.90;98.20;;;;;;5095576;28;20035;-69
2022/02/08 03:20:19;;;;;;;9.10;2.67;;;8.90;98.20;;;;;;5075570;28;20023;-69
2022/02/08 03:22:45;;;;;;;9.15;3.10;;;8.90;98.30;;;;;;5082461;28;20028;-68
2022/02/08 03:25:11;;;;;;;12.15;3.50;;;8.90;98.30;;;;;;5090998;28;20024;-69
2022/02/08 03:27:37;;;;;;;16.52;4.13;;;8.90;98.30;;;;;;5097148;28;20103;-69
2022/02/08 03:30:04;;;;;;;25.13;4.13;;;9.00;98.30;;;;;;5085251;28;20044;-69
2022/02/08 03:32:29;;;;;;;15.80;4.50;;;9.00;98.30;;;;;;5100785;28;20020;-68
2022/02/08 03:34:56;;;;;;;9.52;3.13;;;9.00;98.30;;;;;;5095168;28;20023;-69
2022/02/08 03:37:26;;;;;;;11.20;3.47;;;9.10;98.40;;;;;;5087255;28;20028;-69
2022/02/08 03:40:04;;;;;;;15.88;3.58;;;9.10;98.40;;;;;;5097827;28;20024;-69
2022/02/08 03:42:40;;;;;;;12.27;2.97;;;9.00;98.40;;;;;;5071361;28;20020;-69
2022/02/08 03:45:12;;;;;;;16.27;4.93;;;9.10;98.40;;;;;;5087567;28;20089;-69
2022/02/08 03:47:40;;;;;;;19.55;4.53;;;9.10;98.50;;;;;;5080914;28;20036;-69
2022/02/08 03:50:06;;;;;;;14.63;4.50;;;9.10;98.60;;;;;;5089003;28;20511;-69
2022/02/08 03:52:33;;;;;;;15.00;4.68;;;9.10;98.70;;;;;;5090970;28;20024;-69
2022/02/08 03:55:00;;;;;;;10.32;3.88;;;9.10;98.80;;;;;;5081742;28;20480;-69
2022/02/08 03:57:28;;;;;;;13.05;4.53;;;9.10;98.80;;;;;;5101632;28;20089;-69
2022/02/08 03:59:57;;;;;;;15.73;4.13;;;9.10;98.90;;;;;;5090686;28;20080;-69
2022/02/08 04:02:29;;;;;;;15.43;4.75;;;9.10;99.00;;;;;;5097335;28;20020;-69
2022/02/08 04:05:05;;;;;;;20.23;4.72;;;9.10;99.10;;;;;;5100035;28;20451;-69
2022/02/08 04:07:43;;;;;;;16.52;4.55;;;9.10;99.20;;;;;;5091775;28;20040;-69
2022/02/08 04:10:11;;;;;;;14.55;4.47;;;9.10;99.30;;;;;;5092063;28;20048;-69
2022/02/08 04:12:44;;;;;;;16.02;4.28;;;9.10;99.40;;;;;;5092445;28;20092;-70
2022/02/08 04:17:57;;;;;;;10.50;4.47;;;9.10;99.50;;;;;;5084385;28;20040;-69
2022/02/08 04:39:26;;;;;;;15.50;3.83;;;9.20;99.90;;;;;;5102920;28;20122;-68
2022/02/08 04:44:28;;;;;;;14.35;5.13;;;9.20;99.90;;;;;;5092031;28;20086;-69
2022/02/08 04:47:43;;;;;;;20.40;4.68;;;9.30;99.90;;;;;;5104001;28;20378;-69
2022/02/08 04:49:40;;;;;;;10.55;3.35;;;9.30;99.90;;;;;;5082821;28;20046;-68
2022/02/08 04:52:08;;;;;;;9.73;3.90;;;9.40;99.90;;;;;;5097257;28;20032;-69
2022/02/08 04:57:29;;;;;;;7.60;3.35;;;9.40;99.90;;;;;;5085603;28;20036;-69
2022/02/08 05:00:35;;;;;;;12.73;4.00;;;9.40;99.90;;;;;;5085359;28;20048;-68
2022/02/08 05:26:49;;;;;;;19.42;3.35;;;9.40;99.90;;;;;;5089051;28;20024;-69
2022/02/08 05:36:51;;;;;;;16.58;3.67;;;9.50;99.90;;;;;;5096828;28;20107;-69
2022/02/08 05:45:28;;;;;;;13.18;2.55;;;9.50;99.90;;;;;;5059681;28;20131;-68
2022/02/08 05:47:44;;;;;;;9.85;2.30;;;9.50;99.90;;;;;;5069265;28;20028;-68
2022/02/08 05:50:25;;;;;;;12.95;2.85;;;9.40;99.90;;;;;;5087364;28;20044;-69
2022/02/08 05:55:37;;;;;;;8.95;2.85;;;9.50;99.90;;;;;;5067306;28;21593;-69
2022/02/08 05:58:03;;;;;;;7.20;1.90;;;9.50;99.90;;;;;;5094616;28;20063;-68
2022/02/08 06:00:29;;;;;;;12.38;2.92;;;9.40;99.90;;;;;;5099470;28;20088;-69
2022/02/08 06:03:09;;;;;;;14.27;2.85;;;9.50;99.90;;;;;;5105321;28;20088;-69
2022/02/08 06:05:52;;;;;;;12.90;2.70;;;9.50;99.90;;;;;;5094066;28;20035;-69
2022/02/08 06:08:18;;;;;;;13.25;2.53;;;9.50;99.90;;;;;;5106576;28;20036;-69
2022/02/08 06:10:51;;;;;;;12.35;2.95;;;9.50;99.90;;;;;;5094101;28;20035;-68
2022/02/08 06:13:17;;;;;;;14.45;3.47;;;9.60;99.90;;;;;;5106966;28;20031;-68
2022/02/08 06:15:46;;;;;;;7.05;2.45;;;9.60;99.90;;;;;;5104354;28;20387;-70
2022/02/08 06:18:38;;;;;;;12.75;2.80;;;9.60;99.90;;;;;;5109247;28;20386;-68
2022/02/08 06:21:04;;;;;;;14.25;2.58;;;9.60;99.90;;;;;;5109100;28;20039;-68
2022/02/08 06:23:30;;;;;;;14.50;3.55;;;9.60;99.90;;;;;;5113622;28;20399;-68
2022/02/08 06:25:55;;;;;;;12.55;2.85;;;9.60;99.90;;;;;;5112579;28;20019;-67
2022/02/08 06:28:22;;;;;;;5.82;2.53;;;9.60;99.90;;;;;;5108064;28;20116;-68
2022/02/08 06:30:50;;;;;;;10.88;2.47;;;9.60;99.90;;;;;;5084291;28;20016;-67
2022/02/08 06:33:16;;;;;;;11.07;2.30;;;9.60;99.90;;;;;;5093508;28;20097;-67
2022/02/08 06:35:43;;;;;;;12.55;2.50;;;9.60;99.90;;;;;;5093034;28;20077;-67
2022/02/08 06:38:12;;;;;;;6.88;2.40;;;9.60;99.90;;;;;;5093931;28;20206;-68
2022/02/08 06:40:38;;;;;;;12.27;2.83;;;9.70;99.90;;;;;;5093422;28;20043;-68
2022/02/08 06:43:05;;;;;;;12.38;1.98;;;9.70;99.90;;;;;;5107296;28;20024;-68
2022/02/08 06:45:34;;;;;;;10.98;2.35;;;9.70;99.90;;;;;;5095559;28;20055;-68
2022/02/08 06:48:03;;;;;;;19.90;2.70;;;9.70;99.90;;;;;;5103465;27;20019;-68
2022/02/08 06:50:29;;;;;;;12.60;2.33;;;9.70;99.90;;;;;;5112428;28;20028;-68
2022/02/08 06:52:55;;;;;;;12.30;2.65;;;9.80;99.90;;;;;;5109306;28;20028;-69
2022/02/08 06:55:24;;;;;;;8.65;2.50;;;9.80;99.90;;;;;;5091661;28;20119;-69
2022/02/08 06:57:52;;;;;;;4.78;1.77;;;9.80;99.90;;;;;;5092962;28;20377;-69
2022/02/08 07:00:21;;;;;;;8.20;2.53;;;9.80;99.90;;;;;;5102654;28;20036;-68
2022/02/08 07:02:48;;;;;;;6.47;1.80;;;9.80;99.90;;;;;;5107087;28;20023;-68
2022/02/08 07:05:15;;;;;;;15.27;2.70;;;9.90;99.90;;;;;;5111516;28;20035;-69
2022/02/08 07:07:41;;;;;;;12.98;2.17;;;9.90;99.90;;;;;;5093598;28;20521;-68
2022/02/08 07:10:07;;;;;;;8.43;2.40;;;9.90;99.90;;;;;;5092237;28;20032;-69
2022/02/08 07:12:33;;;;;;;9.00;2.30;;;9.90;99.90;;;;;;5081287;28;20031;-69
2022/02/08 07:15:06;;;;;;;10.43;2.45;;;9.80;99.90;;;;;;5080326;28;20044;-68
2022/02/08 07:17:32;;;;;;;9.50;2.85;;;9.80;99.90;;;;;;5081575;28;20089;-68
2022/02/08 07:19:58;;;;;;;9.02;2.30;;;9.90;99.90;;;;;;5093736;28;20036;-67
2022/02/08 07:22:24;;;;;;;9.07;2.33;;;9.90;99.90;;;;;;5098229;28;20436;-67
2022/02/08 07:24:50;;;;;;;5.18;1.58;;;9.90;99.90;;;;;;5111344;28;20023;-68
2022/02/08 07:27:15;;;;;;;15.75;3.15;;;9.90;99.90;;;;;;5112988;28;20106;-68
2022/02/08 07:29:50;;;;;;;12.13;2.45;;;9.90;99.90;;;;;;5108481;28;20032;-68
2022/02/08 07:32:16;;;;;;;14.25;3.25;;;9.90;99.90;;;;;;5112608;28;20106;-68
2022/02/08 07:34:47;;;;;;;11.65;2.38;;;9.90;99.90;;;;;;5109361;28;20076;-68
2022/02/08 07:37:19;;;;;;;14.63;2.92;;;9.90;99.90;;;;;;5106504;28;20031;-76
2022/02/08 07:39:53;;;;;;;7.60;2.53;;;9.90;99.90;;;;;;5094676;28;20035;-73
2022/02/08 07:42:19;;;;;;;13.13;2.00;;;9.90;99.90;;;;;;5093174;28;20031;-76
2022/02/08 07:44:48;;;;;;;8.48;2.08;;;9.90;99.90;;;;;;5095139;28;20023;-67
2022/02/08 07:47:17;;;;;;;8.20;2.63;;;9.90;99.90;;;;;;5109533;28;20476;-68
2022/02/08 07:49:42;;;;;;;6.75;1.90;;;9.90;99.90;;;;;;5100880;28;20178;-69
2022/02/08 07:52:08;;;;;;;13.90;2.58;;;9.90;99.90;;;;;;5107551;28;20107;-65
2022/02/08 07:54:35;;;;;;;13.98;2.40;;;9.90;99.90;;;;;;5112392;28;20387;-65
2022/02/08 07:57:00;;;;;;;5.25;1.95;;;10.00;99.80;;;;;;5111985;28;20056;-65
2022/02/08 07:59:26;;;;;;;11.20;2.15;;;10.00;99.80;;;;;;5096911;28;20471;-66
2022/02/08 08:01:52;;;;;;;13.57;2.33;;;10.00;99.80;;;;;;5092035;28;20032;-66
2022/02/08 08:04:17;;;;;;;12.43;2.38;;;10.00;99.70;;;;;;5106024;28;20077;-65
2022/02/08 08:06:43;;;;;;;9.77;2.00;;;10.00;99.70;;;;;;5091724;28;20103;-65
2022/02/08 08:09:09;;;;;;;10.35;2.08;;;10.00;99.70;;;;;;5091626;28;20491;-66
2022/02/08 08:11:40;;;;;;;13.93;2.30;;;10.10;99.70;;;;;;5101657;28;20054;-65
2022/02/08 08:14:07;;;;;;;11.35;2.03;;;10.10;99.70;;;;;;5092547;28;20107;-65
2022/02/08 08:21:39;;;;;;;6.75;1.75;;;10.10;99.70;;;;;;5099641;28;20039;-67
2022/02/08 08:24:06;;;;;;;11.25;1.92;;;10.00;99.60;;;;;;5092202;28;20032;-67
2022/02/08 08:26:32;;;;;;;8.73;2.33;;;10.10;99.70;;;;;;5078383;28;20467;-67
2022/02/08 08:28:58;;;;;;;8.80;2.13;;;10.10;99.70;;;;;;5080859;28;20075;-68
2022/02/08 08:31:25;;;;;;;8.73;2.17;;;10.10;99.60;;;;;;5108712;28;20463;-66
2022/02/08 08:33:50;;;;;;;12.15;2.15;;;10.10;99.60;;;;;;5091605;28;20487;-67
2022/02/08 08:36:18;;;;;;;9.50;2.42;;;10.20;99.50;;;;;;5098130;28;20035;-70
2022/02/08 08:38:46;;;;;;;9.15;2.90;;;10.20;99.50;;;;;;5094826;28;20024;-66
2022/02/08 08:41:21;;;;;;;10.23;3.05;;;10.10;99.60;;;;;;5082831;28;20150;-66
2022/02/08 08:44:15;;;;;;;13.00;2.72;;;10.10;99.60;;;;;;5092631;28;20058;-66
2022/02/08 08:51:56;;;;;;;9.35;2.30;;;10.10;99.70;;;;;;5092722;28;20032;-66
2022/02/08 08:54:22;;;;;;;14.02;2.90;;;10.10;99.70;;;;;;5091834;28;20111;-66
2022/02/08 08:56:50;;;;;;;14.43;2.05;;;10.10;99.70;;;;;;5080182;28;20048;-66
2022/02/08 08:59:17;;;;;;;12.82;3.13;;;10.20;99.60;;;;;;5092133;28;20383;-66
2022/02/08 09:01:43;;;;;;;12.85;2.50;;;10.20;99.60;;;;;;5091765;28;20103;-66
2022/02/08 09:04:09;;;;;;;10.52;2.85;;;10.20;99.60;;;;;;5093421;28;20475;-66
2022/02/08 09:06:37;;;;;;;12.10;3.08;;;10.20;99.60;;;;;;5111267;28;20071;-66
2022/02/08 09:09:08;;;;;;;12.75;2.70;;;10.20;99.60;;;;;;5094049;28;20040;-66
2022/02/08 09:30:07;;;;;;;15.07;3.05;;;10.30;99.60;;;;;;5043913;28;20048;-66
2022/02/08 09:32:54;;;;;;;8.90;2.17;;;10.30;99.60;;;;;;5061644;28;20450;-66
2022/02/08 09:35:46;;;;;;;11.55;2.17;;;10.30;99.60;;;;;;5095591;28;20058;-66
2022/02/08 09:38:12;;;;;;;10.40;2.40;;;10.30;99.60;;;;;;5095061;28;20081;-66
2022/02/08 09:40:37;;;;;;;11.55;2.20;;;10.40;99.60;;;;;;5095222;28;20031;-66
2022/02/08 09:43:04;;;;;;;7.93;2.47;;;10.50;99.50;;;;;;5095286;28;20072;-66
2022/02/08 09:45:33;;;;;;;13.80;2.67;;;10.50;99.40;;;;;;5108321;28;20031;-66
2022/02/08 09:48:15;;;;;;;9.23;2.35;;;10.50;99.40;;;;;;5095455;28;20032;-66
2022/02/08 09:50:41;;;;;;;8.27;2.65;;;10.50;99.30;;;;;;5081850;28;20036;-66
2022/02/08 09:53:12;;;;;;;13.38;2.38;;;10.50;99.30;;;;;;5095450;28;20483;-66
2022/02/08 09:55:40;;;;;;;11.18;2.60;;;10.60;99.30;;;;;;5108690;28;20437;-66
2022/02/08 09:58:07;;;;;;;10.52;2.10;;;10.60;99.20;;;;;;5094501;28;20495;-66
2022/02/08 10:00:36;;;;;;;13.45;2.38;;;10.60;99.30;;;;;;5095141;28;20036;-66
2022/02/08 10:03:10;;;;;;;15.30;2.45;;;10.60;99.30;;;;;;5081909;28;20035;-66
2022/02/08 10:05:41;;;;;;;13.75;2.92;;;10.60;99.30;;;;;;5082254;28;20028;-66
2022/02/08 10:08:07;;;;;;;10.95;2.25;;;10.50;99.40;;;;;;5094646;28;20039;-66
2022/02/08 10:10:33;;;;;;;10.27;2.63;;;10.50;99.50;;;;;;5095195;28;20092;-66
2022/02/08 10:13:13;;;;;;;14.23;3.00;;;10.60;99.50;;;;;;5094316;28;20032;-66
2022/02/08 10:24:07;;;;;;;10.82;2.45;;;10.50;99.60;;;;;;5110801;28;20046;-68
2022/02/08 10:26:57;;;;;;;17.38;2.88;;;10.60;99.60;;;;;;5103285;28;20043;-69
2022/02/08 10:40:10;;;;;;;18.73;2.75;;;10.70;99.40;;;;;;5102065;28;20081;-67
2022/02/08 10:42:37;;;;;;;22.35;3.00;;;10.70;99.40;;;;;;5096001;28;20032;-67
2022/02/08 10:45:15;;;;;;;9.32;2.92;;;10.70;99.40;;;;;;5084639;28;20036;-68
2022/02/08 10:47:41;;;;;;;10.35;2.65;;;10.70;99.40;;;;;;5093482;28;20052;-67
2022/02/08 10:50:09;;;;;;;9.10;2.70;;;10.70;99.50;;;;;;5094087;28;20086;-67
2022/02/08 10:52:38;;;;;;;15.02;2.53;;;10.70;99.50;;;;;;5107521;28;20065;-67
2022/02/08 10:55:15;;;;;;;21.27;2.88;;;10.70;99.40;;;;;;5093350;28;20036;-68
2022/02/08 10:57:58;;;;;;;15.20;2.85;;;10.80;99.50;;;;;;5082563;28;20036;-67
2022/02/08 11:03:48;;;;;;;10.63;2.67;;;10.80;99.50;;;;;;5035572;28;20124;-67
2022/02/08 11:09:19;;;;;;;6.85;2.15;;;10.90;99.40;;;;;;5090081;28;20403;-67
2022/02/08 11:22:38;;;;;;;13.30;2.75;;;10.90;99.30;;;;;;5100372;28;20036;-68
2022/02/08 11:25:17;;;;;;;19.33;2.80;;;11.00;99.30;;;;;;5111848;28;20035;-67
2022/02/08 11:27:50;;;;;;;11.35;2.35;;;11.00;99.30;;;;;;5104447;28;20040;-67
2022/02/08 11:30:35;;;;;;;16.55;3.10;;;11.00;99.30;;;;;;5109455;28;20423;-67
2022/02/08 11:33:23;;;;;;;15.38;2.05;;;11.10;99.30;;;;;;5107456;28;20081;-67
2022/02/08 11:48:44;;;;;;;11.60;2.65;;;11.00;99.40;;;;;;5021936;28;20096;-67
2022/02/08 11:51:34;;;;;;;14.40;3.55;;;11.10;99.40;;;;;;5024943;28;20080;-67
2022/02/08 11:54:54;;;;;;;10.48;2.83;;;11.10;99.30;;;;;;4999891;28;20049;-67
2022/02/08 12:07:29;;;;;;;9.93;2.70;;;11.20;99.30;;;;;;5107229;28;20030;-67
2022/02/08 12:10:05;;;;;;;12.90;3.13;;;11.20;99.30;;;;;;5109677;28;20177;-69
2022/02/08 12:12:51;;;;;;;16.80;3.13;;;11.20;99.30;;;;;;5106275;28;20031;-69
2022/02/08 12:48:31;;;;;;;11.55;2.28;;;11.40;99.10;;;;;;5088637;28;20086;-67
2022/02/08 12:59:20;;;;;;;6.30;2.10;;;11.40;99.00;;;;;;5084250;28;20036;-67
2022/02/08 13:02:14;;;;;;;15.60;3.20;;;11.40;99.00;;;;;;5110203;28;20494;-67
2022/02/08 13:17:17;;;;;;;12.63;2.88;;;11.40;99.00;;;;;;5092273;28;20471;-65
2022/02/08 14:01:31;;;;;;;5.38;1.80;;;11.40;99.20;;;;;;5083488;28;20035;-66
2022/02/08 14:08:29;;;;;;;13.38;2.50;;;11.50;99.30;;;;;;5114071;28;20031;-66
2022/02/08 14:29:29;;;;;;;12.52;2.38;;;11.50;99.20;;;;;;5102277;28;20424;-66
2022/02/08 14:32:08;;;;;;;9.07;2.42;;;11.50;99.30;;;;;;5101959;28;20062;-66
2022/02/08 14:37:31;;;;;;;10.32;2.63;;;11.40;99.60;;;;;;5109298;28;20489;-66
2022/02/08 15:08:27;;;;;;;7.68;2.00;;;11.60;99.30;;;;;;5108638;28;20042;-67
2022/02/08 15:10:20;;;;;;;10.88;2.42;;;11.60;99.30;;;;;;5081305;28;20109;-68
2022/02/08 15:12:52;;;;;;;10.55;1.63;;;11.60;99.20;;;;;;5105222;28;20034;-69
2022/02/08 15:17:53;;;;;;;6.70;2.20;;;11.70;99.10;;;;;;5102743;28;20093;-67
2022/02/08 15:20:19;;;;;;;4.75;1.10;;;11.70;99.00;;;;;;5103272;28;20031;-67
2022/02/08 15:22:45;;;;;;;10.73;2.38;;;11.70;99.00;;;;;;5110067;28;20085;-70
2022/02/08 15:25:13;;;;;;;11.70;2.35;;;11.70;99.00;;;;;;5105647;28;20070;-68
2022/02/08 15:27:40;;;;;;;14.02;2.20;;;11.70;98.90;;;;;;5104772;28;20031;-68
2022/02/08 15:30:08;;;;;;;8.32;2.10;;;11.70;98.90;;;;;;5105008;28;20078;-68
2022/02/08 15:32:35;;;;;;;5.97;1.63;;;11.70;98.90;;;;;;5107554;28;20020;-68
2022/02/08 15:35:02;;;;;;;6.75;1.95;;;11.70;98.90;;;;;;5108494;28;20083;-69
2022/02/08 15:37:30;;;;;;;10.20;1.73;;;11.70;98.80;;;;;;5109553;28;20072;-69
2022/02/08 15:39:57;;;;;;;4.50;1.83;;;11.70;98.80;;;;;;5102360;28;20031;-67
2022/02/08 15:42:30;;;;;;;11.50;2.80;;;11.70;98.80;;;;;;5107947;28;20068;-68
2022/02/08 15:44:57;;;;;;;12.98;2.30;;;11.70;98.80;;;;;;5104827;28;20084;-69
2022/02/08 15:47:23;;;;;;;9.60;1.85;;;11.70;98.80;;;;;;5107530;27;20491;-68
2022/02/08 15:49:57;;;;;;;6.65;2.10;;;11.70;98.80;;;;;;5101941;28;20040;-68
2022/02/08 15:52:45;;;;;;;8.40;2.33;;;11.60;98.90;;;;;;5102889;28;20030;-68
2022/02/08 15:55:27;;;;;;;6.93;1.80;;;11.60;98.90;;;;;;5105328;28;20370;-69
2022/02/08 15:58:05;;;;;;;14.75;2.47;;;11.60;98.90;;;;;;5109330;28;20052;-68
2022/02/08 16:08:50;;;;;;;4.22;1.70;;;11.60;98.90;;;;;;5103439;28;20108;-67
2022/02/08 16:14:00;;;;;;;9.48;1.77;;;11.50;99.00;;;;;;5104193;28;20095;-69
2022/02/08 16:19:11;;;;;;;6.20;1.55;;;11.50;98.90;;;;;;5104300;28;20379;-67
2022/02/08 16:32:09;;;;;;;7.05;1.50;;;11.60;98.80;;;;;;5102896;28;20020;-66
2022/02/08 16:55:53;;;;;;;6.60;1.60;;;11.50;98.60;;;;;;5085144;28;20024;-67
2022/02/08 17:01:17;;;;;;;7.53;2.05;;;11.50;98.60;;;;;;5086428;28;20105;-68
2022/02/08 17:03:48;;;;;;;13.27;1.80;;;11.50;98.60;;;;;;5092693;28;20031;-67
2022/02/08 17:06:17;;;;;;;11.32;2.58;;;11.40;98.60;;;;;;5104628;28;20038;-68
2022/02/08 17:08:44;;;;;;;11.32;2.55;;;11.40;98.60;;;;;;5093807;28;20062;-67
2022/02/08 17:11:10;;;;;;;16.60;2.75;;;11.40;98.70;;;;;;5103620;28;20040;-68
2022/02/08 17:16:25;;;;;;;11.15;2.17;;;11.30;98.80;;;;;;5104827;28;20028;-68
2022/02/08 17:45:57;;;;;;;11.55;2.47;;;11.30;99.00;;;;;;5109702;28;20391;-67
2022/02/08 17:48:22;;;;;;;7.90;2.03;;;11.30;99.00;;;;;;5103492;28;20559;-66
2022/02/08 17:50:48;;;;;;;10.55;2.30;;;11.20;99.10;;;;;;5104276;28;20138;-67
2022/02/08 17:53:15;;;;;;;10.00;2.78;;;11.20;99.10;;;;;;5107452;28;20020;-70
2022/02/08 17:55:40;;;;;;;9.70;2.15;;;11.20;99.00;;;;;;5106029;28;20085;-69
2022/02/08 17:58:06;;;;;;;7.28;2.40;;;11.20;99.10;;;;;;5101194;28;20043;-66
2022/02/08 18:00:35;;;;;;;8.80;2.53;;;11.20;99.10;;;;;;5107442;28;20429;-66
2022/02/08 18:03:02;;;;;;;11.52;2.60;;;11.20;99.10;;;;;;5103861;28;20432;-67
2022/02/08 18:05:29;;;;;;;10.70;2.63;;;11.20;99.10;;;;;;5107100;28;20055;-67
2022/02/08 18:07:54;;;;;;;14.70;2.60;;;11.10;99.10;;;;;;5107979;28;20020;-67
2022/02/08 18:10:23;;;;;;;13.20;2.80;;;11.10;99.10;;;;;;5104269;28;20552;-67
2022/02/08 18:12:51;;;;;;;12.57;3.05;;;11.10;99.10;;;;;;5105596;28;20024;-68
2022/02/08 18:15:17;;;;;;;15.45;3.10;;;11.00;99.30;;;;;;5105105;28;20051;-68
2022/02/08 18:17:53;;;;;;;9.45;2.50;;;11.00;99.30;;;;;;5102792;28;20517;-68
2022/02/08 18:57:41;;;;;;;9.63;2.17;;;11.10;99.00;;;;;;5101467;28;20090;-67
2022/02/08 19:23:51;;;;;;;4.15;1.67;;;11.30;98.60;;;;;;5107595;28;20024;-67
2022/02/08 19:26:18;;;;;;;9.60;2.35;;;11.30;98.60;;;;;;5106514;28;20032;-67
2022/02/08 19:28:44;;;;;;;6.72;1.73;;;11.30;98.60;;;;;;5103194;28;20035;-67
2022/02/08 19:31:10;;;;;;;12.65;2.45;;;11.30;98.60;;;;;;5107548;28;20040;-67
2022/02/08 19:33:36;;;;;;;8.10;1.85;;;11.30;98.60;;;;;;5095608;28;20020;-67
2022/02/08 19:36:02;;;;;;;9.07;2.30;;;11.30;98.60;;;;;;5108899;28;20394;-67
2022/02/08 19:38:29;;;;;;;4.35;1.33;;;11.30;98.60;;;;;;5103325;28;20019;-67
2022/02/08 19:40:55;;;;;;;6.78;1.60;;;11.30;98.60;;;;;;5106426;28;20023;-71
2022/02/08 19:43:21;;;;;;;9.85;2.05;;;11.20;98.60;;;;;;5109574;28;20028;-67
2022/02/08 19:45:47;;;;;;;9.40;2.22;;;11.30;98.70;;;;;;5110179;28;20031;-67
2022/02/08 19:48:14;;;;;;;5.65;2.30;;;11.20;98.60;;;;;;5105579;28;20032;-67
2022/02/08 19:50:42;;;;;;;2.72;1.40;;;11.30;98.70;;;;;;5102114;28;20033;-67
2022/02/08 19:53:09;;;;;;;3.70;1.48;;;11.20;98.70;;;;;;5103500;28;20043;-67
2022/02/08 19:58:19;;;;;;;3.05;1.70;;;11.20;98.70;;;;;;5108472;28;20063;-67
2022/02/08 20:00:55;;;;;;;4.90;1.33;;;11.30;98.70;;;;;;5107508;28;20035;-68
2022/02/08 20:03:21;;;;;;;6.88;1.23;;;11.30;98.60;;;;;;5100902;28;20027;-67
2022/02/08 20:05:49;;;;;;;5.13;2.17;;;11.30;98.60;;;;;;5108398;28;20402;-67
2022/02/08 20:08:14;;;;;;;19.58;2.63;;;11.40;98.50;;;;;;5102169;28;20145;-67
2022/02/08 20:10:40;;;;;;;5.05;1.70;;;11.40;98.40;;;;;;5101970;28;20134;-67
2022/02/08 20:13:06;;;;;;;6.68;1.88;;;11.40;98.40;;;;;;5104211;28;20024;-67
2022/02/08 20:15:32;;;;;;;11.98;2.75;;;11.40;98.40;;;;;;5102204;28;20040;-67
2022/02/08 20:17:59;;;;;;;3.83;1.60;;;11.40;98.40;;;;;;5100626;28;20026;-67
2022/02/08 20:20:26;;;;;;;7.97;2.15;;;11.40;98.40;;;;;;5105776;28;20024;-69
2022/02/08 20:22:58;;;;;;;11.32;2.30;;;11.40;98.40;;;;;;5109174;28;20038;-68
2022/02/08 20:25:27;;;;;;;7.10;2.10;;;11.40;98.40;;;;;;5105691;28;20047;-68
2022/02/08 20:28:11;;;;;;;15.68;2.20;;;11.40;98.40;;;;;;5105498;28;20731;-68
2022/02/08 20:30:38;;;;;;;;;;;11.40;98.40;;;;;;5109771;28;20035;-67
2022/02/08 20:33:04;;;;;;;4.55;1.30;;;11.40;98.40;;;;;;5106539;28;19908;-67
2022/02/08 20:35:31;;;;;;;6.18;2.38;;;11.40;98.30;;;;;;5109070;28;20031;-67
2022/02/08 20:37:56;;;;;;;17.10;3.10;;;11.40;98.40;;;;;;5107933;28;20455;-68
2022/02/08 20:40:22;;;;;;;3.97;1.70;;;11.40;98.40;;;;;;5097570;28;20020;-67
2022/02/08 20:42:54;;;;;;;11.23;2.08;;;11.40;98.30;;;;;;5108717;28;20023;-66
2022/02/08 20:45:22;;;;;;;7.00;2.30;;;11.40;98.30;;;;;;5108854;28;20080;-67
2022/02/08 20:47:48;;;;;;;8.45;2.17;;;11.40;98.30;;;;;;5109122;28;20028;-67